メインページ
METAR-TAF:

METAR-TAF

空港 :

North Battleford, サスカチュワン州, カナダ

緯度: 52-46N, 経度: 108-15W, 海抜: 548m

現時点の気象観測

当レポートは48分前の11:00(UTC)に作成
東/南東の風 7kt
気温 -24°C
湿度 76%
気圧 1017 hPa
視程: 14.5km
高度12000ftの曇り

METAR: CYQW 141100Z AUTO 11007KT 9SM OVC120 M24/M27 A3002 RMK SLP231

時間: 05:48 (11:48 UTC)

予報

当レポートは4時間31分前の07:17(UTC)に作成
予報は14日の 07時(UTC)から 14日の 18時(UTC)まで有効
東/南東の風 6kt
視程: 10km
高度10000ftの千切れ雲あり
14日の 07時(UTC)から 14日の 12時(UTC)まで一時的に
高度200ftの雲はほとんどない
高度10000ftの雲は散在している
14日の 1200時(UTC)から
東/南東の風 8kt
視程: 10km
高度2000ftの雲はほとんどない
高度8000ftの千切れ雲あり
14日の 12時(UTC)から 14日の 15時(UTC)まで一時的に
高度500ftの雲はほとんどない
高度2000ftの雲は散在している
高度6000ftの千切れ雲あり
14日の 1500時(UTC)から
東/南東の風 8kt
視程: 10km
高度2000ftの雲は散在している
高度6000ftの千切れ雲あり
14日の 15時(UTC)から 14日の 18時(UTC)まで一時的に
視程: 9.7km
高度2000ftの千切れ雲あり
高度6000ftの千切れ雲あり
小雪

TAF: CYQW 140717Z 1407/1418 12006KT P6SM BKN100 TEMPO 1407/1412 FEW002 SCT100 FM141200 12008KT P6SM FEW020 BKN080 TEMPO 1412/1415 FEW005 SCT020 BKN060 FM141500 12008KT P6SM SCT020 BKN060 TEMPO 1415/1418 6SM -SN BKN020 BKN060 RMK FCST BASED ON AUTO OBS. NXT FCST BY 141200Z

4,000以上の空港の気象観測と天気予報(METAR報とTAF報)

利用可能な観測所は地図上に黄色い丸と赤い丸で示す。

丸の上にカーソルを重ねると観測所名を参照できる。

次にクリックすると気象観測と天気予報を参照できる。

マップの切り替え:黒色「×」印の緑ボタンをクリックして拡大、「-」印の緑ボタンをクリックして縮小、緑色の三角印をクリックして隣りの地図に切り替え


METAR-TAF: